Time;durP1;ratioP1;P1;durP2;ratioP2;P2;SDS_P1;SDS_P2;PMS_P1;PMS_P2;Temp;Humidity;BMP_temperature;BMP_pressure;BME280_temperature;BME280_humidity;BME280_pressure;Samples;Min_cycle;Max_cycle;Signal;HPM_P1;HPM_P2
2023/10/06 00:00:40;;;;;;;8.15;3.95;;;;;;;14.35;63.44;101950.69;687951;28;1244;-93
2023/10/06 00:01:00;;;;;;;7.70;3.80;;;;;;;14.33;63.35;101955.88;682762;29;1400;-95
2023/10/06 00:01:21;;;;;;;6.00;3.45;;;;;;;14.28;63.13;101947.00;679781;29;1211;-92
2023/10/06 00:01:42;;;;;;;5.75;3.53;;;;;;;14.32;63.36;101954.09;679971;29;1466;-92
2023/10/06 00:02:07;;;;;;;6.88;3.80;;;;;;;14.29;63.34;101947.84;682529;29;1224;-94
2023/10/06 00:02:30;;;;;;;8.63;4.22;;;;;;;14.29;63.26;101953.13;680245;29;1380;-94
2023/10/06 00:02:51;;;;;;;7.57;3.95;;;;;;;14.30;63.19;101953.16;680283;29;1370;-95
2023/10/06 00:03:14;;;;;;;7.53;3.90;;;;;;;14.21;63.35;101938.00;682812;28;1182;-94
2023/10/06 00:03:36;;;;;;;7.40;3.55;;;;;;;14.25;63.45;101945.16;682238;29;1343;-93
2023/10/06 00:03:59;;;;;;;7.28;3.80;;;;;;;14.29;63.36;101956.66;680136;29;1188;-94
2023/10/06 00:04:22;;;;;;;7.80;3.90;;;;;;;14.30;63.55;101968.03;682748;28;1298;-93
2023/10/06 00:04:43;;;;;;;7.90;4.00;;;;;;;14.25;63.66;101966.16;682859;29;1185;-93
2023/10/06 00:05:11;;;;;;;7.80;3.75;;;;;;;14.21;63.34;101953.75;684911;28;1224;-93
2023/10/06 00:05:32;;;;;;;7.28;4.00;;;;;;;14.24;63.55;101961.75;685468;28;1260;-95
2023/10/06 00:05:55;;;;;;;6.90;3.90;;;;;;;14.18;63.36;101953.69;682760;29;1309;-94
2023/10/06 00:06:22;;;;;;;6.63;4.00;;;;;;;14.24;63.57;101969.63;688025;28;1395;-93
2023/10/06 00:06:43;;;;;;;6.18;3.78;;;;;;;14.24;63.55;101967.00;685646;28;1268;-93
2023/10/06 00:07:07;;;;;;;5.97;3.80;;;;;;;14.16;63.76;101952.75;684595;28;1259;-93
2023/10/06 00:07:28;;;;;;;5.57;3.50;;;;;;;14.24;63.64;101968.72;680301;29;1311;-94
2023/10/06 00:07:50;;;;;;;4.97;3.47;;;;;;;14.19;63.75;101955.44;687579;28;1340;-94
2023/10/06 00:08:11;;;;;;;5.00;3.22;;;;;;;14.17;63.58;101957.16;685321;28;1333;-93
2023/10/06 00:08:32;;;;;;;5.60;3.30;;;;;;;14.21;63.83;101969.50;687055;28;1242;-93
2023/10/06 00:08:56;;;;;;;7.68;3.75;;;;;;;14.20;63.74;101959.84;685571;28;1263;-93
2023/10/06 00:09:28;;;;;;;7.25;3.83;;;;;;;14.18;63.52;101964.19;680501;29;1688;-93
2023/10/06 00:09:48;;;;;;;5.78;3.50;;;;;;;14.18;63.85;101963.28;687705;28;1142;-93
2023/10/06 00:10:16;;;;;;;5.27;3.70;;;;;;;14.18;63.53;101958.00;682697;29;1271;-94
2023/10/06 00:10:44;;;;;;;6.10;3.60;;;;;;;14.11;63.63;101946.44;685081;28;1213;-94
2023/10/06 00:11:11;;;;;;;7.32;3.63;;;;;;;14.19;63.51;101965.94;685484;28;1232;-94
2023/10/06 00:11:32;;;;;;;6.70;3.50;;;;;;;14.13;63.41;101960.50;682774;28;1385;-93
2023/10/06 00:11:54;;;;;;;7.10;3.40;;;;;;;14.08;63.75;101949.81;682962;29;1260;-93
2023/10/06 00:12:16;;;;;;;6.90;3.47;;;;;;;14.14;63.54;101959.69;684547;28;1246;-94
2023/10/06 00:12:39;;;;;;;6.63;3.80;;;;;;;14.18;63.53;101965.91;680151;29;1222;-93
2023/10/06 00:13:03;;;;;;;7.57;4.20;;;;;;;14.12;63.50;101958.72;687314;28;1284;-93
2023/10/06 00:13:31;;;;;;;8.50;4.13;;;;;;;14.15;63.55;101969.34;688084;28;1246;-95
2023/10/06 00:14:00;;;;;;;7.45;3.75;;;;;;;14.12;63.66;101963.97;677835;29;1378;-93
2023/10/06 00:14:39;;;;;;;6.03;3.50;;;;;;;14.11;63.34;101962.19;688072;28;1358;-93
2023/10/06 00:15:00;;;;;;;6.35;3.90;;;;;;;14.08;63.61;101962.06;685109;28;1350;-93
2023/10/06 00:15:26;;;;;;;6.90;4.10;;;;;;;14.03;63.64;101953.13;685084;28;1288;-94
2023/10/06 00:15:49;;;;;;;8.02;3.78;;;;;;;14.06;63.79;101963.72;682955;29;1301;-94
2023/10/06 00:16:11;;;;;;;8.32;3.63;;;;;;;14.04;63.52;101954.91;682343;29;1375;-94
2023/10/06 00:16:38;;;;;;;10.18;3.80;;;;;;;14.05;63.37;101956.69;682757;29;1232;-94
2023/10/06 00:16:59;;;;;;;8.27;3.75;;;;;;;14.03;63.80;101954.06;680216;29;1240;-94
2023/10/06 00:17:21;;;;;;;7.20;3.95;;;;;;;13.95;63.75;101939.78;682776;29;1254;-94
2023/10/06 00:17:48;;;;;;;6.18;3.90;;;;;;;14.01;63.88;101949.59;682978;28;1330;-93
2023/10/06 00:18:16;;;;;;;7.82;4.10;;;;;;;14.00;63.76;101947.81;685275;28;1367;-94
2023/10/06 00:18:37;;;;;;;7.38;3.95;;;;;;;14.02;64.06;101949.59;685440;28;1293;-94
2023/10/06 00:19:06;;;;;;;6.93;4.00;;;;;;;13.96;63.78;101938.94;688742;28;1305;-93
2023/10/06 00:19:26;;;;;;;6.35;4.25;;;;;;;13.99;63.71;101949.53;680664;29;1262;-93
2023/10/06 00:19:54;;;;;;;5.97;3.93;;;;;;;14.02;63.81;101952.22;683276;28;1274;-93
2023/10/06 00:20:25;;;;;;;6.15;3.90;;;;;;;13.99;64.00;101952.16;685982;28;1233;-92
2023/10/06 00:20:49;;;;;;;5.10;3.60;;;;;;;13.95;64.09;101945.91;691474;28;1248;-93
2023/10/06 00:21:15;;;;;;;4.25;3.33;;;;;;;13.92;64.11;101939.66;691348;28;1280;-94
2023/10/06 00:21:36;;;;;;;3.75;3.10;;;;;;;13.94;63.98;101944.13;683286;29;1320;-92
2023/10/06 00:22:41;;;;;;;4.70;3.40;;;;;;;13.98;64.12;101946.03;680600;29;1356;-91
2023/10/06 00:22:43;;;;;;;6.30;3.50;;;;;;;13.89;64.15;101940.44;680165;29;1394;-93
2023/10/06 00:23:06;;;;;;;5.00;3.40;;;;;;;13.93;64.00;101947.59;680108;29;1280;-92
2023/10/06 00:23:27;;;;;;;5.60;3.58;;;;;;;13.96;64.06;101942.44;679134;29;1295;-92
2023/10/06 00:23:49;;;;;;;7.82;4.15;;;;;;;13.95;64.27;101943.28;680711;29;1237;-93
2023/10/06 00:24:10;;;;;;;8.43;3.92;;;;;;;13.91;64.08;101937.88;685348;28;1213;-92
2023/10/06 00:24:31;;;;;;;9.00;4.00;;;;;;;13.95;64.43;101938.03;685912;28;1236;-92
2023/10/06 00:24:58;;;;;;;7.38;4.20;;;;;;;13.99;64.14;101952.16;682822;29;1328;-92
2023/10/06 00:25:19;;;;;;;6.80;4.30;;;;;;;13.94;64.19;101938.88;683059;29;1213;-92
2023/10/06 00:25:43;;;;;;;5.20;3.80;;;;;;;13.94;64.17;101936.25;680260;29;1308;-92
2023/10/06 00:26:09;;;;;;;5.57;3.80;;;;;;;13.95;63.94;101939.78;680497;29;1245;-92
2023/10/06 00:26:30;;;;;;;5.80;3.90;;;;;;;13.99;64.17;101944.28;683293;29;1246;-93
2023/10/06 00:26:51;;;;;;;4.90;3.78;;;;;;;13.97;63.90;101938.97;683086;29;1349;-94
2023/10/06 00:27:13;;;;;;;5.07;3.70;;;;;;;13.97;64.00;101944.22;685230;28;1286;-94
2023/10/06 00:27:33;;;;;;;5.50;3.47;;;;;;;13.96;63.91;101937.19;677964;29;1216;-93
2023/10/06 00:27:54;;;;;;;6.37;3.80;;;;;;;14.03;64.13;101958.38;678336;29;1262;-92
2023/10/06 00:28:19;;;;;;;5.78;3.95;;;;;;;13.95;64.02;101951.16;683118;29;1357;-95
2023/10/06 00:28:40;;;;;;;5.60;4.10;;;;;;;13.98;64.23;101956.53;685906;28;1277;-94
2023/10/06 00:29:01;;;;;;;6.23;3.90;;;;;;;13.97;64.08;101946.84;680655;29;1267;-92
2023/10/06 00:29:23;;;;;;;5.97;3.83;;;;;;;13.98;63.97;101953.00;680443;29;1177;-92
2023/10/06 00:29:47;;;;;;;5.88;3.80;;;;;;;13.97;63.99;101948.59;683546;29;1269;-93
2023/10/06 00:30:11;;;;;;;4.93;3.80;;;;;;;13.87;63.96;101936.03;683189;29;1199;-94
2023/10/06 00:30:32;;;;;;;8.65;3.90;;;;;;;13.96;64.07;101958.19;678019;29;1241;-93
2023/10/06 00:30:58;;;;;;;9.10;3.93;;;;;;;13.89;63.99;101940.44;683266;29;1280;-94
2023/10/06 00:32:48;;;;;;;12.27;3.92;;;;;;;13.98;64.12;101946.03;684964;28;1409;-93
2023/10/06 00:33:10;;;;;;;10.43;3.65;;;;;;;13.93;64.27;101939.72;680366;29;1045;-93
2023/10/06 00:33:34;;;;;;;5.95;3.70;;;;;;;13.98;64.37;101947.75;677998;29;1970;-93
2023/10/06 00:33:58;;;;;;;5.90;3.80;;;;;;;14.00;64.32;101950.44;675451;29;1277;-94
2023/10/06 00:34:19;;;;;;;7.18;4.10;;;;;;;14.02;64.29;101948.75;679991;29;1277;-93
2023/10/06 00:34:40;;;;;;;6.90;4.10;;;;;;;13.97;64.47;101946.84;683342;29;1328;-93
2023/10/06 00:35:11;;;;;;;5.45;3.78;;;;;;;14.00;64.30;101953.06;683383;29;1317;-93
2023/10/06 00:35:32;;;;;;;5.40;3.50;;;;;;;13.97;64.37;101949.47;679732;29;1239;-93
2023/10/06 00:35:53;;;;;;;5.95;3.70;;;;;;;13.93;64.37;101942.34;683382;29;1417;-93
2023/10/06 00:36:14;;;;;;;6.00;3.83;;;;;;;14.00;64.40;101947.81;680395;29;1217;-91
2023/10/06 00:36:36;;;;;;;7.65;3.88;;;;;;;13.98;64.50;101948.66;682786;29;1412;-92
2023/10/06 00:36:57;;;;;;;6.78;3.70;;;;;;;14.01;64.18;101952.22;683289;29;1250;-93
2023/10/06 00:37:24;;;;;;;7.75;4.18;;;;;;;14.02;64.32;101949.59;683108;28;1290;-93
2023/10/06 00:37:45;;;;;;;6.00;4.00;;;;;;;14.01;64.48;101949.59;683335;29;1362;-93
2023/10/06 00:38:16;;;;;;;6.20;3.92;;;;;;;14.06;64.08;101951.50;685136;28;1225;-91
2023/10/06 00:38:42;;;;;;;6.18;3.80;;;;;;;14.02;64.01;101941.75;683182;28;1525;-93
2023/10/06 00:39:12;;;;;;;8.98;4.10;;;;;;;14.01;64.13;101941.72;685813;28;1269;-93
2023/10/06 00:39:36;;;;;;;8.13;4.00;;;;;;;14.04;64.19;101941.78;688585;28;1348;-93
2023/10/06 00:39:57;;;;;;;4.57;3.67;;;;;;;14.04;63.98;101944.41;680723;29;1340;-92
2023/10/06 00:40:24;;;;;;;5.40;3.70;;;;;;;14.05;64.12;101941.84;688330;28;1192;-93
2023/10/06 00:40:53;;;;;;;8.35;3.85;;;;;;;14.09;64.27;101954.22;685399;28;1336;-93
2023/10/06 00:41:14;;;;;;;8.95;4.20;;;;;;;14.03;64.29;101947.91;683188;29;1222;-94
2023/10/06 00:41:35;;;;;;;7.88;4.05;;;;;;;14.02;64.25;101946.97;680607;29;1186;-94
2023/10/06 00:41:56;;;;;;;8.13;4.13;;;;;;;14.01;64.34;101941.72;683209;28;1182;-95
2023/10/06 00:42:26;;;;;;;9.02;4.30;;;;;;;14.03;64.44;101940.94;685659;28;1371;-92
2023/10/06 00:42:56;;;;;;;7.97;4.18;;;;;;;14.10;64.29;101955.13;683402;29;1268;-93
2023/10/06 00:43:36;;;;;;;5.35;3.92;;;;;;;14.04;64.51;101945.31;681984;28;1457;-92
2023/10/06 00:43:57;;;;;;;6.45;4.03;;;;;;;14.05;64.12;101943.56;688722;28;1369;-91
2023/10/06 00:44:21;;;;;;;6.87;4.37;;;;;;;14.06;64.21;101947.97;680445;29;1341;-93
2023/10/06 00:44:45;;;;;;;8.75;4.45;;;;;;;14.13;64.26;101963.13;680712;29;1359;-94
2023/10/06 00:45:08;;;;;;;8.30;4.13;;;;;;;14.08;64.06;101955.06;682513;29;1378;-94
2023/10/06 00:45:30;;;;;;;7.07;3.92;;;;;;;14.13;63.95;101963.13;682834;29;1301;-94
2023/10/06 00:45:51;;;;;;;6.00;3.90;;;;;;;14.15;64.01;101963.19;691530;28;1399;-94
2023/10/06 00:46:18;;;;;;;5.47;3.92;;;;;;;14.14;64.06;101961.41;685508;28;1274;-94
2023/10/06 00:46:43;;;;;;;5.20;3.70;;;;;;;14.15;63.88;101968.44;681016;29;1246;-93
2023/10/06 00:47:05;;;;;;;4.68;3.40;;;;;;;14.07;64.06;101952.41;680118;29;1308;-93
2023/10/06 00:47:38;;;;;;;5.40;3.50;;;;;;;14.04;63.86;101947.03;680686;29;1260;-93
2023/10/06 00:47:59;;;;;;;11.70;3.50;;;;;;;14.08;64.25;101946.31;680756;29;1348;-93
2023/10/06 00:48:21;;;;;;;11.45;3.55;;;;;;;14.04;64.16;101954.91;683079;29;1395;-93
2023/10/06 00:48:44;;;;;;;11.27;3.85;;;;;;;14.10;64.01;101960.38;682907;28;1060;-93
2023/10/06 00:49:07;;;;;;;5.97;3.80;;;;;;;14.07;64.32;101957.66;683102;28;1345;-92
2023/10/06 00:49:28;;;;;;;6.15;3.70;;;;;;;14.04;64.33;101953.19;683289;29;1291;-93
2023/10/06 00:49:55;;;;;;;6.22;3.55;;;;;;;14.00;64.29;101945.19;685336;28;1139;-94
2023/10/06 00:50:21;;;;;;;7.35;3.97;;;;;;;14.06;64.34;101954.13;680415;29;1446;-93
2023/10/06 00:50:43;;;;;;;7.18;4.25;;;;;;;13.93;64.39;101931.84;688762;28;1385;-94
2023/10/06 00:51:19;;;;;;;6.90;4.20;;;;;;;13.98;64.16;101948.66;685834;28;1217;-94
2023/10/06 00:51:41;;;;;;;7.40;4.18;;;;;;;14.03;64.38;101958.38;680302;29;1369;-93
2023/10/06 00:52:06;;;;;;;5.47;3.92;;;;;;;14.01;64.16;101944.34;683176;29;1411;-94
2023/10/06 00:52:27;;;;;;;4.75;3.67;;;;;;;14.01;64.17;101949.59;685971;28;1262;-94
2023/10/06 00:52:47;;;;;;;4.80;3.70;;;;;;;13.98;64.21;101948.66;677645;29;1265;-94
2023/10/06 00:53:11;;;;;;;5.97;3.70;;;;;;;13.93;64.37;101942.34;685686;28;1319;-94
2023/10/06 00:53:31;;;;;;;7.78;3.90;;;;;;;13.96;64.26;101941.56;682884;28;1918;-92
2023/10/06 00:53:56;;;;;;;8.73;4.30;;;;;;;13.93;64.31;101933.56;683247;29;1193;-93
2023/10/06 00:54:19;;;;;;;7.88;4.40;;;;;;;13.97;64.31;101944.22;682898;29;1403;-92
2023/10/06 00:54:43;;;;;;;6.10;4.22;;;;;;;13.97;64.09;101943.34;685836;28;1389;-93
2023/10/06 00:55:06;;;;;;;7.85;3.92;;;;;;;13.95;64.41;101938.03;683243;29;1373;-94
2023/10/06 00:55:30;;;;;;;9.75;4.03;;;;;;;13.92;64.38;101935.31;680622;29;1222;-93
2023/10/06 00:55:51;;;;;;;9.13;3.80;;;;;;;13.94;64.42;101938.88;682506;29;1214;-94
2023/10/06 00:56:15;;;;;;;6.05;3.90;;;;;;;13.97;64.37;101941.59;680642;29;1222;-94
2023/10/06 00:56:36;;;;;;;6.78;4.30;;;;;;;13.92;64.32;101935.31;680447;29;1351;-94
2023/10/06 00:56:58;;;;;;;7.10;4.18;;;;;;;13.94;64.27;101941.50;680614;29;1432;-93
2023/10/06 00:57:20;;;;;;;8.05;4.18;;;;;;;13.90;64.29;101931.72;680088;29;1316;-93
2023/10/06 00:57:40;;;;;;;8.25;4.43;;;;;;;13.89;64.19;101927.31;683183;29;1240;-93
2023/10/06 00:58:04;;;;;;;11.65;4.80;;;;;;;13.94;64.10;101941.50;685429;28;1303;-93
2023/10/06 00:58:27;;;;;;;10.25;4.60;;;;;;;13.88;64.42;101932.56;683184;29;1230;-93
2023/10/06 00:58:47;;;;;;;7.00;4.20;;;;;;;13.86;64.43;101927.25;682930;29;1398;-92
2023/10/06 00:59:11;;;;;;;6.32;4.05;;;;;;;13.85;64.53;101936.84;685874;28;1317;-92
2023/10/06 00:59:31;;;;;;;6.32;4.00;;;;;;;13.91;64.37;101944.03;680526;29;1159;-93
2023/10/06 00:59:53;;;;;;;5.72;3.75;;;;;;;13.83;64.59;101930.66;682881;28;1385;-93
2023/10/06 01:00:20;;;;;;;6.13;3.78;;;;;;;13.86;64.51;101929.88;688465;28;1251;-93
2023/10/06 01:00:41;;;;;;;4.97;3.60;;;;;;;13.81;64.38;101923.56;680649;29;1404;-92
2023/10/06 01:01:05;;;;;;;5.53;3.90;;;;;;;13.89;64.33;101950.94;685977;28;1197;-92
2023/10/06 01:01:26;;;;;;;6.25;4.03;;;;;;;13.83;64.39;101932.41;680532;29;1227;-93
2023/10/06 01:01:46;;;;;;;6.50;4.10;;;;;;;13.84;64.33;101926.31;683318;29;1209;-93
2023/10/06 01:02:11;;;;;;;6.45;4.13;;;;;;;13.79;64.37;101923.53;680270;29;1251;-93
2023/10/06 01:02:34;;;;;;;6.65;4.65;;;;;;;13.77;64.44;101921.69;683696;28;1417;-93
2023/10/06 01:02:55;;;;;;;6.53;4.60;;;;;;;13.82;64.45;101931.50;680138;29;1396;-93
2023/10/06 01:03:16;;;;;;;7.80;4.63;;;;;;;13.83;64.52;101935.03;683138;29;1245;-93
2023/10/06 01:03:44;;;;;;;7.78;4.30;;;;;;;13.82;64.28;101927.97;685761;28;1436;-92
2023/10/06 01:04:34;;;;;;;5.75;4.10;;;;;;;13.85;64.67;101930.72;680589;29;1329;-93
2023/10/06 01:04:55;;;;;;;6.45;4.40;;;;;;;13.83;64.44;101929.78;685943;28;1315;-92
2023/10/06 01:05:19;;;;;;;9.63;4.45;;;;;;;13.83;64.76;101924.53;682592;28;1381;-92
2023/10/06 01:05:46;;;;;;;9.82;4.53;;;;;;;13.83;64.62;101932.41;685937;28;1223;-93
2023/10/06 01:06:12;;;;;;;8.98;4.07;;;;;;;13.80;64.52;101913.91;687702;28;1349;-94
2023/10/06 01:06:34;;;;;;;5.60;3.80;;;;;;;13.78;64.74;101916.47;683325;28;1254;-93
2023/10/06 01:06:55;;;;;;;7.20;4.03;;;;;;;13.85;64.81;101922.84;683070;28;1341;-92
2023/10/06 01:07:16;;;;;;;7.73;4.60;;;;;;;13.77;64.65;101908.56;678339;29;1320;-92
2023/10/06 01:07:38;;;;;;;10.02;4.80;;;;;;;13.85;65.04;101920.22;680022;29;1174;-92
2023/10/06 01:07:59;;;;;;;9.43;4.80;;;;;;;13.85;64.88;101914.97;680555;29;1249;-92
2023/10/06 01:08:20;;;;;;;9.00;4.37;;;;;;;13.81;64.86;101910.44;680506;29;1183;-93
2023/10/06 01:08:52;;;;;;;8.73;4.28;;;;;;;13.86;64.69;101911.50;683299;29;1342;-93
2023/10/06 01:09:15;;;;;;;6.93;3.92;;;;;;;13.85;64.71;101914.97;683022;29;1420;-93
2023/10/06 01:09:36;;;;;;;4.80;3.40;;;;;;;13.91;64.44;101928.28;682809;29;1237;-94
2023/10/06 01:09:59;;;;;;;5.22;3.63;;;;;;;13.83;64.56;101911.41;683212;28;1261;-94
2023/10/06 01:10:27;;;;;;;5.78;3.88;;;;;;;13.85;64.36;101914.97;683230;28;1335;-93
2023/10/06 01:10:51;;;;;;;6.38;4.00;;;;;;;13.83;64.58;101914.03;680541;29;1457;-93
2023/10/06 01:11:12;;;;;;;7.53;4.25;;;;;;;13.80;64.58;101909.56;680513;29;1211;-93
2023/10/06 01:11:58;;;;;;;7.55;4.03;;;;;;;13.81;64.35;101926.19;682611;28;1285;-93
2023/10/06 01:12:19;;;;;;;8.25;4.35;;;;;;;13.79;64.57;101923.53;675084;29;1231;-93
2023/10/06 01:12:40;;;;;;;9.02;4.70;;;;;;;13.78;64.60;101923.47;677982;29;1355;-94
2023/10/06 01:13:11;;;;;;;9.67;4.63;;;;;;;13.75;64.80;101921.63;683018;28;1397;-93
2023/10/06 01:13:33;;;;;;;7.32;4.30;;;;;;;13.80;64.74;101924.41;682184;28;1919;-94
2023/10/06 01:13:57;;;;;;;7.80;4.60;;;;;;;13.74;64.69;101918.94;680707;29;1289;-91
2023/10/06 01:14:26;;;;;;;7.65;4.82;;;;;;;13.81;64.64;101926.19;679985;29;1378;-92
2023/10/06 01:14:51;;;;;;;7.60;4.53;;;;;;;13.79;64.76;101926.16;680452;29;1273;-92
2023/10/06 01:15:17;;;;;;;6.45;4.32;;;;;;;13.74;65.02;101919.84;682776;29;1232;-94
2023/10/06 01:15:55;;;;;;;7.20;4.30;;;;;;;13.74;64.72;101926.81;682800;29;1384;-94
2023/10/06 01:16:16;;;;;;;10.73;4.82;;;;;;;13.81;64.86;101926.19;683000;28;1284;-93
2023/10/06 01:16:37;;;;;;;10.15;4.88;;;;;;;13.83;64.63;101924.53;685807;28;1274;-95
2023/10/06 01:17:31;;;;;;;8.40;4.40;;;;;;;13.87;64.79;101930.78;683227;28;1266;-94
2023/10/06 01:17:45;;;;;;;6.35;4.47;;;;;;;13.76;64.92;101912.03;681282;29;1286;-93
2023/10/06 01:18:07;;;;;;;10.32;4.50;;;;;;;13.79;64.57;101912.13;680500;29;1096;-93
2023/10/06 01:18:35;;;;;;;10.20;4.45;;;;;;;13.76;64.77;101904.19;685634;28;1423;-92
2023/10/06 01:19:01;;;;;;;10.82;4.20;;;;;;;13.79;64.96;101906.88;683227;29;1285;-92
2023/10/06 01:19:27;;;;;;;7.15;4.00;;;;;;;13.87;64.62;101921.16;683325;29;1013;-93
2023/10/06 01:19:49;;;;;;;6.30;4.07;;;;;;;13.83;64.97;101911.41;687833;28;1332;-92
2023/10/06 01:20:12;;;;;;;7.15;4.50;;;;;;;13.83;64.79;101908.78;685359;28;1236;-92
2023/10/06 01:20:54;;;;;;;8.33;4.40;;;;;;;13.88;64.62;101906.31;685968;28;1177;-92
2023/10/06 01:21:27;;;;;;;8.98;4.40;;;;;;;13.82;64.81;101896.47;680414;29;1198;-93
2023/10/06 01:21:52;;;;;;;7.38;4.75;;;;;;;13.90;64.67;101912.50;682770;29;1561;-93
2023/10/06 01:22:29;;;;;;;7.75;4.65;;;;;;;13.87;64.82;101904.53;682231;28;1149;-93
2023/10/06 01:22:55;;;;;;;7.85;3.90;;;;;;;13.77;64.97;101885.84;683352;29;1380;-94
2023/10/06 01:23:25;;;;;;;6.82;3.67;;;;;;;13.83;64.58;101908.78;680468;29;1266;-93
2023/10/06 01:23:49;;;;;;;10.38;4.10;;;;;;;13.80;64.62;101898.16;685951;28;1389;-94
2023/10/06 01:24:13;;;;;;;11.20;4.20;;;;;;;13.81;64.86;101899.94;680452;29;1324;-95
2023/10/06 01:24:34;;;;;;;11.48;4.32;;;;;;;13.83;64.79;101912.28;682949;29;1278;-91
2023/10/06 01:24:55;;;;;;;6.87;4.20;;;;;;;13.83;65.07;101906.16;680347;29;1250;-92
2023/10/06 01:25:23;;;;;;;7.60;4.30;;;;;;;13.83;64.88;101908.78;677510;29;1533;-92
2023/10/06 01:25:44;;;;;;;10.60;4.35;;;;;;;13.76;64.85;101891.06;688671;28;1280;-94
2023/10/06 01:26:06;;;;;;;10.00;4.60;;;;;;;13.81;64.84;101906.09;688238;28;1281;-92
2023/10/06 01:26:26;;;;;;;8.75;4.80;;;;;;;13.83;65.20;101906.16;679585;29;1254;-91
2023/10/06 01:26:49;;;;;;;7.00;4.70;;;;;;;13.81;65.02;101902.56;682833;29;1165;-91
2023/10/06 01:27:11;;;;;;;8.35;4.80;;;;;;;13.88;65.00;101914.19;685694;28;1366;-95
2023/10/06 01:27:32;;;;;;;7.32;4.35;;;;;;;13.82;64.79;101906.97;682549;29;1399;-92
2023/10/06 01:27:52;;;;;;;7.40;4.47;;;;;;;13.87;65.28;101912.41;680508;29;1258;-93
2023/10/06 01:28:13;;;;;;;7.20;4.60;;;;;;;13.90;64.86;101912.50;682955;29;1226;-95
2023/10/06 01:28:34;;;;;;;8.40;5.00;;;;;;;13.82;65.11;101897.38;683165;29;1151;-93
2023/10/06 01:28:57;;;;;;;7.18;4.70;;;;;;;13.84;64.80;101905.31;683419;29;1288;-94
2023/10/06 01:29:22;;;;;;;6.82;4.90;;;;;;;13.88;65.00;101909.81;679456;29;1292;-92
2023/10/06 01:29:45;;;;;;;6.57;4.68;;;;;;;13.86;64.88;101903.63;683214;29;1299;-94
2023/10/06 01:30:36;;;;;;;9.80;4.70;;;;;;;13.86;65.05;101906.25;680496;29;1317;-93
2023/10/06 01:30:57;;;;;;;7.40;4.70;;;;;;;13.90;65.02;101902.00;683164;28;1199;-93
2023/10/06 01:31:21;;;;;;;6.80;4.53;;;;;;;13.88;64.97;101904.56;682763;28;1372;-92
2023/10/06 01:31:42;;;;;;;9.07;5.00;;;;;;;13.91;64.97;101899.44;680338;29;1276;-91
2023/10/06 01:32:04;;;;;;;9.50;5.00;;;;;;;13.88;64.98;101894.06;685493;28;1236;-94
2023/10/06 01:32:26;;;;;;;9.60;5.22;;;;;;;13.93;64.90;101905.59;683067;29;1269;-93
2023/10/06 01:32:50;;;;;;;6.03;4.63;;;;;;;13.85;64.71;101893.97;683036;28;1379;-93
2023/10/06 01:33:14;;;;;;;6.82;4.20;;;;;;;13.91;64.93;101899.44;682801;29;1253;-92
2023/10/06 01:33:35;;;;;;;7.43;4.20;;;;;;;13.88;64.80;101896.69;680067;29;1919;-92
2023/10/06 01:33:56;;;;;;;8.15;4.57;;;;;;;13.90;64.70;101897.63;680426;29;1183;-93
2023/10/06 01:34:18;;;;;;;7.10;4.95;;;;;;;13.88;64.95;101895.81;678794;29;1665;-93
2023/10/06 01:34:39;;;;;;;7.35;5.03;;;;;;;13.85;64.91;101893.97;682594;28;1307;-92
2023/10/06 01:35:01;;;;;;;7.40;4.80;;;;;;;13.88;65.11;101898.44;680411;29;1528;-93
2023/10/06 01:35:23;;;;;;;7.20;4.80;;;;;;;13.82;64.92;101885.97;686194;28;1307;-94
2023/10/06 01:35:47;;;;;;;7.88;4.97;;;;;;;13.90;64.78;101902.88;685996;28;1429;-93
2023/10/06 01:36:13;;;;;;;6.28;4.43;;;;;;;13.85;64.96;101894.84;685263;28;1233;-91
2023/10/06 01:36:37;;;;;;;4.95;4.15;;;;;;;13.92;64.82;101903.84;685475;28;1277;-93
2023/10/06 01:37:03;;;;;;;5.82;4.30;;;;;;;13.82;64.72;101891.22;680698;29;1255;-94
2023/10/06 01:37:24;;;;;;;7.20;4.88;;;;;;;13.82;64.77;101891.22;680247;29;1337;-92
2023/10/06 01:37:47;;;;;;;8.07;5.20;;;;;;;13.89;64.91;101898.47;680230;29;1225;-93
2023/10/06 01:38:20;;;;;;;7.35;4.93;;;;;;;13.87;64.82;101899.28;678074;29;1396;-92
2023/10/06 01:38:45;;;;;;;6.55;4.22;;;;;;;13.82;64.86;101892.13;680411;29;1591;-94
2023/10/06 01:39:16;;;;;;;9.82;4.30;;;;;;;13.82;64.79;101891.22;685755;28;1245;-95
2023/10/06 01:39:39;;;;;;;12.50;4.90;;;;;;;13.88;65.01;101901.94;684662;28;1416;-93
2023/10/06 01:40:07;;;;;;;10.23;5.15;;;;;;;13.79;64.90;101880.66;683037;29;1345;-93
2023/10/06 01:40:53;;;;;;;10.25;4.80;;;;;;;13.80;64.85;101888.56;680481;29;1226;-92
2023/10/06 01:41:14;;;;;;;10.77;4.45;;;;;;;13.82;65.15;101893.84;682455;28;1319;-92
2023/10/06 01:41:34;;;;;;;8.80;4.07;;;;;;;13.85;65.14;101899.22;685781;28;1194;-94
2023/10/06 01:41:56;;;;;;;8.80;4.35;;;;;;;13.86;65.11;101898.38;683174;29;1151;-93
2023/10/06 01:42:18;;;;;;;5.95;4.25;;;;;;;13.84;64.93;101894.81;678104;29;1190;-94
2023/10/06 01:42:39;;;;;;;5.88;4.10;;;;;;;13.82;65.15;101896.47;677441;29;1311;-92
2023/10/06 01:43:00;;;;;;;6.95;4.22;;;;;;;13.84;65.09;101894.81;682999;29;1288;-92
2023/10/06 01:43:24;;;;;;;7.70;4.50;;;;;;;13.79;65.16;101893.78;679349;29;1138;-92
2023/10/06 01:43:45;;;;;;;7.88;4.63;;;;;;;13.83;65.38;101896.53;682960;29;1414;-92
2023/10/06 01:44:10;;;;;;;7.93;4.70;;;;;;;13.82;65.11;101894.75;682898;29;1164;-92
2023/10/06 01:44:32;;;;;;;8.57;4.72;;;;;;;13.80;64.96;101896.44;680257;29;1300;-92
2023/10/06 01:44:52;;;;;;;7.30;4.80;;;;;;;13.80;65.19;101893.81;682476;29;1226;-93
2023/10/06 01:45:14;;;;;;;7.03;4.63;;;;;;;13.78;65.05;101884.13;680334;29;1142;-94
2023/10/06 01:45:35;;;;;;;5.82;4.55;;;;;;;13.88;65.22;101899.31;685735;28;1232;-93
2023/10/06 01:45:56;;;;;;;5.75;4.43;;;;;;;13.79;64.97;101885.91;685801;28;1217;-95
2023/10/06 01:46:16;;;;;;;6.38;4.47;;;;;;;13.80;64.92;101890.31;685581;28;1248;-94
2023/10/06 01:46:39;;;;;;;7.95;4.60;;;;;;;13.87;65.05;101899.28;683283;28;1237;-94
2023/10/06 01:47:11;;;;;;;8.60;4.70;;;;;;;13.81;64.91;101895.59;683111;29;1118;-93
2023/10/06 01:47:32;;;;;;;8.05;4.35;;;;;;;13.81;64.86;101894.69;680424;28;1255;-92
2023/10/06 01:48:14;;;;;;;8.38;4.80;;;;;;;13.84;64.91;101907.94;680597;29;1304;-94
2023/10/06 01:48:36;;;;;;;9.40;5.20;;;;;;;13.79;64.85;101899.00;685501;28;1348;-95
2023/10/06 01:48:57;;;;;;;9.27;4.60;;;;;;;13.81;65.01;101895.59;685935;28;1409;-94
2023/10/06 01:49:21;;;;;;;9.38;4.60;;;;;;;13.78;65.15;101894.63;685819;28;1138;-94
2023/10/06 01:49:44;;;;;;;8.35;4.47;;;;;;;13.78;64.84;101897.25;683261;28;1313;-94
2023/10/06 01:50:05;;;;;;;10.63;4.95;;;;;;;13.74;64.94;101892.72;680417;29;1263;-94
2023/10/06 01:50:28;;;;;;;9.32;4.88;;;;;;;13.71;65.00;101894.41;685837;28;1362;-93
2023/10/06 01:50:49;;;;;;;8.70;4.45;;;;;;;13.75;65.14;101897.16;685890;28;1303;-95
2023/10/06 01:51:14;;;;;;;7.00;4.20;;;;;;;13.70;64.89;101892.63;680301;29;1202;-93
2023/10/06 01:51:38;;;;;;;7.32;3.92;;;;;;;13.69;64.95;101901.34;683162;28;1239;-94
2023/10/06 01:52:02;;;;;;;7.38;4.22;;;;;;;13.69;64.88;101895.19;682804;28;1376;-93
2023/10/06 01:52:22;;;;;;;6.63;4.25;;;;;;;13.66;64.90;101890.72;680359;29;1333;-93
2023/10/06 01:52:43;;;;;;;7.60;4.63;;;;;;;13.65;65.19;101894.19;685766;28;1287;-93
2023/10/06 01:53:06;;;;;;;7.35;4.40;;;;;;;13.67;64.90;101891.63;685687;28;1186;-94
2023/10/06 01:53:32;;;;;;;8.13;4.60;;;;;;;13.70;65.16;101903.13;691212;28;1226;-94
2023/10/06 01:53:53;;;;;;;7.03;4.30;;;;;;;13.57;65.17;101874.69;693023;28;1416;-93
2023/10/06 01:54:14;;;;;;;8.63;4.57;;;;;;;13.61;65.17;101879.22;685566;28;1307;-94
2023/10/06 01:54:35;;;;;;;8.17;4.77;;;;;;;13.69;65.28;101900.44;688485;28;1151;-93
2023/10/06 01:55:09;;;;;;;7.25;4.70;;;;;;;13.63;65.30;101890.63;686017;28;1193;-95
2023/10/06 01:55:30;;;;;;;5.68;4.30;;;;;;;13.62;65.36;101883.63;680354;29;1468;-93
2023/10/06 01:55:52;;;;;;;6.15;4.18;;;;;;;13.69;65.43;101896.09;680337;29;1408;-93
2023/10/06 01:56:14;;;;;;;6.30;4.10;;;;;;;13.71;64.96;101897.03;688191;28;1194;-94
2023/10/06 01:56:35;;;;;;;6.38;4.13;;;;;;;13.66;65.12;101890.72;680079;29;1313;-94
2023/10/06 01:56:55;;;;;;;7.03;4.60;;;;;;;13.64;65.11;101892.41;675214;29;1206;-93
2023/10/06 01:57:16;;;;;;;7.15;4.50;;;;;;;13.66;65.15;101895.09;677239;29;1208;-93